createdAt,value
2023-11-27T00:01:09.624Z,12.73
2023-11-27T00:03:40.163Z,16.50
2023-11-27T00:06:09.972Z,14.30
2023-11-27T00:08:38.329Z,20.83
2023-11-27T00:11:07.537Z,17.37
2023-11-27T00:13:36.033Z,15.80
2023-11-27T00:16:04.503Z,21.63
2023-11-27T00:18:32.865Z,19.03
2023-11-27T00:21:02.561Z,20.90
2023-11-27T00:23:30.994Z,21.50
2023-11-27T00:25:59.811Z,22.43
2023-11-27T00:28:28.583Z,22.77
2023-11-27T00:30:57.058Z,27.23
2023-11-27T00:33:25.769Z,24.67
2023-11-27T00:35:53.945Z,23.27
2023-11-27T00:38:23.599Z,24.20
2023-11-27T00:40:52.568Z,24.87
2023-11-27T00:43:21.187Z,26.73
2023-11-27T00:45:49.676Z,26.53
2023-11-27T00:48:18.027Z,28.50
2023-11-27T00:50:46.303Z,25.67
2023-11-27T00:53:15.695Z,28.97
2023-11-27T00:55:46.448Z,30.57
2023-11-27T00:58:14.864Z,31.00
2023-11-27T01:00:43.220Z,32.30
2023-11-27T01:03:11.926Z,30.23
2023-11-27T01:05:41.119Z,32.03
2023-11-27T01:08:09.353Z,33.63
2023-11-27T01:10:37.886Z,30.70
2023-11-27T01:13:07.946Z,31.50
2023-11-27T01:15:36.258Z,33.57
2023-11-27T01:18:05.329Z,35.90
2023-11-27T01:20:33.608Z,30.30
2023-11-27T01:23:02.019Z,30.77
2023-11-27T01:25:30.344Z,28.17
2023-11-27T01:27:58.643Z,35.90
2023-11-27T01:30:29.631Z,34.80
2023-11-27T01:32:58.292Z,30.37
2023-11-27T01:35:26.590Z,30.83
2023-11-27T01:37:54.870Z,32.17
2023-11-27T01:40:23.966Z,33.10
2023-11-27T01:42:52.363Z,34.47
2023-11-27T01:45:20.752Z,29.90
2023-11-27T01:47:53.041Z,36.93
2023-11-27T01:50:21.382Z,34.17
2023-11-27T01:52:49.896Z,28.00
2023-11-27T01:55:18.176Z,33.37
2023-11-27T01:57:46.822Z,25.57
2023-11-27T02:00:16.841Z,28.83
2023-11-27T02:02:47.850Z,26.73
2023-11-27T02:05:20.181Z,28.43
2023-11-27T02:07:48.548Z,28.73
2023-11-27T02:10:16.944Z,29.13
2023-11-27T02:12:45.227Z,24.60
2023-11-27T02:15:14.692Z,165.63
2023-11-27T02:17:43.895Z,28.37
2023-11-27T02:20:13.073Z,29.27
2023-11-27T02:22:45.074Z,32.80
2023-11-27T02:25:15.622Z,28.60
2023-11-27T02:27:43.926Z,27.20
2023-11-27T02:30:12.296Z,29.47
2023-11-27T02:32:40.590Z,31.47
2023-11-27T02:35:09.470Z,30.70
2023-11-27T02:37:37.834Z,32.60
2023-11-27T02:40:07.388Z,25.30
2023-11-27T02:42:37.032Z,26.73
2023-11-27T02:45:06.477Z,27.50
2023-11-27T02:47:34.744Z,29.20
2023-11-27T02:50:03.005Z,31.70
2023-11-27T02:52:31.880Z,26.33
2023-11-27T02:55:01.618Z,28.90
2023-11-27T02:57:32.139Z,29.87
2023-11-27T03:00:01.915Z,27.67
2023-11-27T03:02:30.261Z,28.27
2023-11-27T03:04:58.557Z,25.50
2023-11-27T03:07:26.819Z,28.00
2023-11-27T03:09:55.136Z,24.47
2023-11-27T03:12:23.354Z,26.57
2023-11-27T03:14:51.574Z,30.03
2023-11-27T03:17:22.399Z,30.70
2023-11-27T03:19:53.601Z,25.33
2023-11-27T03:22:22.192Z,26.27
2023-11-27T03:24:50.498Z,27.40
2023-11-27T03:27:19.157Z,22.07
2023-11-27T03:29:48.023Z,26.63
2023-11-27T03:32:16.396Z,28.10
2023-11-27T03:34:46.601Z,30.23
2023-11-27T03:37:15.734Z,26.93
2023-11-27T03:39:43.975Z,25.87
2023-11-27T03:42:12.205Z,24.03
2023-11-27T03:44:40.515Z,21.47
2023-11-27T03:47:08.776Z,25.50
2023-11-27T03:49:38.303Z,28.80
2023-11-27T03:52:08.849Z,27.93
2023-11-27T03:54:37.270Z,24.03
2023-11-27T03:57:06.000Z,26.60
2023-11-27T03:59:34.313Z,28.20
2023-11-27T04:02:03.035Z,23.20
2023-11-27T04:04:31.495Z,26.23
2023-11-27T04:07:01.486Z,27.57
2023-11-27T04:09:31.406Z,28.00
2023-11-27T04:11:59.701Z,30.40
2023-11-27T04:14:27.925Z,29.17
2023-11-27T04:16:56.233Z,25.00
2023-11-27T04:19:24.851Z,28.27
2023-11-27T04:21:53.333Z,27.80
2023-11-27T04:24:21.749Z,24.50
2023-11-27T04:26:51.371Z,21.80
2023-11-27T04:29:19.733Z,27.50
2023-11-27T04:31:48.001Z,29.00
2023-11-27T04:34:17.161Z,24.17
2023-11-27T04:36:46.870Z,27.70
2023-11-27T04:39:16.103Z,26.97
2023-11-27T04:41:44.421Z,22.00
2023-11-27T04:44:14.118Z,28.07
2023-11-27T04:46:42.583Z,24.07
2023-11-27T04:49:13.071Z,23.33
2023-11-27T04:51:41.632Z,30.00
2023-11-27T04:54:09.903Z,26.23
2023-11-27T04:56:38.116Z,30.60
2023-11-27T04:59:06.672Z,29.13
2023-11-27T05:01:37.104Z,29.87
2023-11-27T05:04:05.722Z,25.93
2023-11-27T05:06:34.677Z,27.50
2023-11-27T05:09:04.213Z,33.17
2023-11-27T05:11:32.520Z,27.87
2023-11-27T05:14:00.787Z,27.53
2023-11-27T05:16:29.069Z,26.07
2023-11-27T05:18:59.004Z,24.07
2023-11-27T05:21:27.570Z,25.93
2023-11-27T05:23:55.783Z,23.23
2023-11-27T05:26:24.143Z,26.60
2023-11-27T05:28:52.396Z,29.20
2023-11-27T05:31:23.971Z,26.00
2023-11-27T05:33:52.399Z,28.27
2023-11-27T05:36:22.514Z,25.67
2023-11-27T05:38:50.791Z,33.63
2023-11-27T05:41:19.991Z,27.10
2023-11-27T05:43:48.351Z,28.70
2023-11-27T05:46:19.459Z,29.37
2023-11-27T05:48:47.896Z,27.77
2023-11-27T05:51:17.482Z,29.30
2023-11-27T05:53:47.110Z,24.93
2023-11-27T05:56:15.452Z,29.13
2023-11-27T05:58:43.644Z,25.40
2023-11-27T06:01:11.940Z,22.60
2023-11-27T06:03:40.330Z,24.40
2023-11-27T06:06:09.540Z,25.53
2023-11-27T06:08:37.814Z,25.60
2023-11-27T06:11:08.292Z,25.63
2023-11-27T06:13:36.823Z,21.07
2023-11-27T06:16:05.542Z,24.13
2023-11-27T06:18:33.960Z,24.20
2023-11-27T06:21:02.257Z,25.60
2023-11-27T06:23:30.624Z,22.90
2023-11-27T06:25:59.560Z,23.83
2023-11-27T06:28:29.256Z,23.97
2023-11-27T06:30:57.742Z,24.93
2023-11-27T06:33:27.444Z,24.10
2023-11-27T06:35:56.028Z,23.20
2023-11-27T06:38:24.627Z,25.20
2023-11-27T06:40:54.169Z,26.00
2023-11-27T06:43:22.552Z,22.37
2023-11-27T06:45:53.539Z,27.97
2023-11-27T06:48:22.088Z,22.87
2023-11-27T06:50:50.337Z,21.57
2023-11-27T06:53:18.662Z,24.57
2023-11-27T06:55:48.005Z,20.43
2023-11-27T06:58:16.326Z,20.87
2023-11-27T07:00:44.567Z,20.73
2023-11-27T07:03:14.259Z,19.63
2023-11-27T07:05:42.565Z,20.60
2023-11-27T07:08:10.862Z,24.00
2023-11-27T07:10:39.102Z,22.30
2023-11-27T07:13:07.419Z,22.30
2023-11-27T07:15:35.728Z,21.87
2023-11-27T07:18:14.273Z,20.77
2023-11-27T07:20:48.779Z,17.00
2023-11-27T07:23:17.313Z,20.73
2023-11-27T07:25:45.827Z,23.10
2023-11-27T07:28:14.191Z,22.53
2023-11-27T07:30:42.944Z,20.40
2023-11-27T07:33:11.490Z,19.63
2023-11-27T07:35:40.415Z,18.73
2023-11-27T07:38:10.105Z,18.90
2023-11-27T07:40:38.421Z,20.40
2023-11-27T07:43:12.185Z,18.47
2023-11-27T07:45:41.140Z,17.83
2023-11-27T07:48:09.721Z,18.27
2023-11-27T07:50:38.054Z,19.63
2023-11-27T07:53:06.254Z,16.23
2023-11-27T07:55:36.260Z,16.63
2023-11-27T07:58:04.662Z,17.73
2023-11-27T08:00:33.448Z,22.30
2023-11-27T08:03:01.675Z,15.47
2023-11-27T08:05:30.950Z,13.50
2023-11-27T08:07:59.447Z,15.57
2023-11-27T08:10:29.743Z,15.30
2023-11-27T08:12:59.488Z,15.27
2023-11-27T08:15:27.834Z,17.67
2023-11-27T08:17:58.544Z,13.63
2023-11-27T08:20:29.793Z,14.93
2023-11-27T08:22:59.543Z,15.17
2023-11-27T08:25:28.630Z,13.50
2023-11-27T08:27:58.339Z,18.23
2023-11-27T08:30:30.552Z,13.07
2023-11-27T08:32:59.411Z,18.53
2023-11-27T08:35:28.085Z,12.97
2023-11-27T08:37:56.899Z,12.03
2023-11-27T08:40:25.662Z,13.70
2023-11-27T08:42:54.026Z,14.33
2023-11-27T08:45:22.460Z,13.30
2023-11-27T08:47:53.524Z,15.53
2023-11-27T08:50:26.216Z,17.20
2023-11-27T08:52:59.531Z,12.50
2023-11-27T08:55:31.843Z,13.57
2023-11-27T08:58:04.340Z,13.53
2023-11-27T09:00:33.537Z,12.60
2023-11-27T09:03:03.936Z,13.97
2023-11-27T09:05:35.072Z,15.17
2023-11-27T09:08:07.854Z,14.53
2023-11-27T09:10:38.021Z,12.60
2023-11-27T09:13:07.611Z,16.10
2023-11-27T09:15:36.543Z,14.53
2023-11-27T09:18:06.383Z,13.90
2023-11-27T09:20:35.100Z,14.00
2023-11-27T09:23:03.547Z,11.97
2023-11-27T09:25:31.880Z,13.27
2023-11-27T09:28:00.593Z,11.27
2023-11-27T09:30:28.871Z,13.07
2023-11-27T09:32:57.135Z,12.50
2023-11-27T09:35:26.778Z,9.33
2023-11-27T09:37:55.204Z,11.17
2023-11-27T09:40:24.133Z,10.30
2023-11-27T09:42:52.408Z,8.83
2023-11-27T09:45:21.578Z,9.00
2023-11-27T09:47:52.627Z,9.63
2023-11-27T09:50:23.402Z,12.20
2023-11-27T09:53:01.739Z,9.07
2023-11-27T09:55:33.455Z,11.60
2023-11-27T09:58:02.479Z,10.93
2023-11-27T10:00:32.868Z,11.07
2023-11-27T10:03:01.563Z,11.13
2023-11-27T10:05:30.254Z,10.17
2023-11-27T10:08:00.301Z,11.70
2023-11-27T10:10:29.529Z,9.77
2023-11-27T10:13:07.023Z,9.53
2023-11-27T10:15:38.224Z,11.03
2023-11-27T10:18:09.691Z,10.03
2023-11-27T10:20:43.510Z,10.77
2023-11-27T10:23:13.412Z,12.30
2023-11-27T10:25:41.909Z,8.50
2023-11-27T10:28:10.567Z,8.77
2023-11-27T10:30:38.988Z,9.50
2023-11-27T10:33:07.409Z,8.93
2023-11-27T10:35:35.672Z,9.07
2023-11-27T10:38:05.859Z,8.03
2023-11-27T10:40:35.669Z,10.07
2023-11-27T10:43:05.590Z,10.00
2023-11-27T10:45:37.738Z,9.33
2023-11-27T10:48:08.817Z,9.13
2023-11-27T10:50:42.779Z,8.50
2023-11-27T10:53:13.003Z,9.17
2023-11-27T10:55:45.904Z,9.37
2023-11-27T10:58:15.917Z,9.20
2023-11-27T11:00:48.544Z,9.60
2023-11-27T11:03:20.654Z,8.33
2023-11-27T11:05:51.667Z,10.40
2023-11-27T11:08:24.862Z,9.30
2023-11-27T11:10:56.675Z,8.83
2023-11-27T11:13:27.045Z,6.93
2023-11-27T11:16:04.667Z,9.07
2023-11-27T11:18:44.533Z,11.57
2023-11-27T11:21:48.557Z,9.47
2023-11-27T11:24:26.200Z,8.63
2023-11-27T11:27:10.932Z,8.77
2023-11-27T11:29:45.171Z,9.67
2023-11-27T11:32:17.645Z,10.03
2023-11-27T11:34:51.644Z,8.27
2023-11-27T11:37:21.919Z,10.67
2023-11-27T11:39:54.898Z,8.13
2023-11-27T11:42:31.615Z,8.60
2023-11-27T11:45:15.564Z,9.50
2023-11-27T11:47:44.048Z,10.60
2023-11-27T11:50:31.991Z,10.50
2023-11-27T11:53:04.623Z,9.03
2023-11-27T11:55:34.543Z,10.50
2023-11-27T11:58:08.420Z,8.60
2023-11-27T12:00:45.572Z,10.60
2023-11-27T12:03:18.178Z,9.60
2023-11-27T12:05:53.341Z,8.93
2023-11-27T12:08:23.213Z,9.63
2023-11-27T12:10:52.860Z,8.50
2023-11-27T12:13:25.222Z,12.00
2023-11-27T12:15:57.541Z,12.83
2023-11-27T12:18:27.101Z,10.67
2023-11-27T12:20:56.170Z,11.30
2023-11-27T12:23:25.956Z,8.50
2023-11-27T12:25:54.583Z,10.00
2023-11-27T12:28:24.767Z,11.27
2023-11-27T12:30:53.749Z,8.63
2023-11-27T12:33:22.500Z,11.53
2023-11-27T12:35:52.960Z,10.20
2023-11-27T12:38:21.610Z,10.27
2023-11-27T12:40:50.243Z,9.90
2023-11-27T12:43:20.039Z,9.70
2023-11-27T12:45:59.136Z,8.73
2023-11-27T12:48:28.027Z,9.53
2023-11-27T12:50:57.583Z,11.13
2023-11-27T12:53:26.062Z,9.33
2023-11-27T12:55:56.176Z,10.87
2023-11-27T12:58:25.665Z,10.63
2023-11-27T13:00:57.718Z,10.43
2023-11-27T13:03:29.473Z,11.10
2023-11-27T13:06:01.276Z,11.30
2023-11-27T13:08:33.749Z,8.20
2023-11-27T13:11:06.784Z,8.20
2023-11-27T13:13:35.677Z,9.80
2023-11-27T13:16:07.565Z,9.00
2023-11-27T13:18:36.905Z,11.73
2023-11-27T13:21:10.109Z,9.90
2023-11-27T13:23:39.040Z,10.40
2023-11-27T13:26:19.358Z,11.40
2023-11-27T13:28:47.665Z,12.97
2023-11-27T13:31:17.940Z,13.20
2023-11-27T13:33:46.350Z,11.53
2023-11-27T13:36:20.493Z,10.53
2023-11-27T13:38:48.973Z,11.80
2023-11-27T13:41:17.346Z,10.47
2023-11-27T13:43:48.761Z,11.93
2023-11-27T13:46:18.852Z,11.63
2023-11-27T13:48:49.353Z,13.03
2023-11-27T13:51:18.125Z,13.97
2023-11-27T13:53:48.284Z,14.67
2023-11-27T13:56:20.710Z,11.77
2023-11-27T13:58:53.634Z,13.00
2023-11-27T14:01:24.635Z,12.83
2023-11-27T14:04:14.231Z,15.73
2023-11-27T14:06:46.604Z,13.93
2023-11-27T14:09:45.487Z,14.80
2023-11-27T14:12:14.022Z,16.87
2023-11-27T14:14:43.153Z,14.50
2023-11-27T14:17:20.102Z,17.30
2023-11-27T14:20:06.006Z,12.77
2023-11-27T14:22:51.396Z,14.53
2023-11-27T14:25:32.080Z,14.83
2023-11-27T14:28:13.129Z,16.83
2023-11-27T14:30:42.220Z,14.83
2023-11-27T14:33:13.123Z,15.40
2023-11-27T14:35:47.143Z,12.10
2023-11-27T14:38:16.413Z,14.63
2023-11-27T14:40:44.660Z,14.57
2023-11-27T14:43:14.214Z,13.30
2023-11-27T14:45:48.126Z,11.37
2023-11-27T14:48:21.206Z,9.80
2023-11-27T14:50:49.678Z,12.40
2023-11-27T14:53:20.303Z,11.30
2023-11-27T14:55:48.740Z,10.20
2023-11-27T14:58:18.174Z,15.30
2023-11-27T15:00:49.451Z,13.33
2023-11-27T15:03:21.507Z,12.10
2023-11-27T15:05:51.008Z,14.60
2023-11-27T15:08:22.117Z,13.53
2023-11-27T15:10:51.687Z,13.90
2023-11-27T15:13:21.584Z,11.40
2023-11-27T15:15:54.559Z,14.13
2023-11-27T15:18:24.700Z,11.17
2023-11-27T15:20:53.432Z,12.83
2023-11-27T15:23:22.965Z,9.93
2023-11-27T15:25:52.623Z,14.40
2023-11-27T15:28:24.736Z,9.83
2023-11-27T15:30:55.786Z,12.90
2023-11-27T15:33:26.711Z,11.37
2023-11-27T15:35:56.437Z,10.73
2023-11-27T15:38:26.077Z,11.73
2023-11-27T15:40:54.518Z,13.00
2023-11-27T15:43:24.144Z,10.20
2023-11-27T15:45:52.560Z,14.83
2023-11-27T15:48:20.940Z,14.50
2023-11-27T15:50:50.583Z,13.73
2023-11-27T15:53:20.661Z,7.83
2023-11-27T15:55:50.418Z,7.13
2023-11-27T15:58:18.848Z,10.47
2023-11-27T16:00:49.959Z,10.43
2023-11-27T16:03:18.383Z,10.60
2023-11-27T16:05:46.673Z,8.27
2023-11-27T16:08:16.304Z,9.90
2023-11-27T16:10:49.684Z,9.13
2023-11-27T16:13:18.531Z,15.70
2023-11-27T16:15:48.258Z,10.60
2023-11-27T16:18:18.706Z,11.53
2023-11-27T16:20:47.457Z,12.57
2023-11-27T16:23:17.990Z,8.40
2023-11-27T16:25:47.604Z,8.73
2023-11-27T16:28:16.151Z,7.60
2023-11-27T16:30:44.540Z,8.10
2023-11-27T16:33:12.804Z,11.43
2023-11-27T16:35:42.583Z,8.07
2023-11-27T16:38:11.060Z,8.37
2023-11-27T16:40:41.764Z,7.67
2023-11-27T16:43:11.666Z,8.13
2023-11-27T16:45:40.184Z,8.23
2023-11-27T16:48:08.832Z,9.10
2023-11-27T16:50:37.385Z,12.13
2023-11-27T16:53:05.753Z,9.37
2023-11-27T16:55:36.871Z,11.07
2023-11-27T16:58:07.606Z,10.93
2023-11-27T17:00:38.250Z,9.73
2023-11-27T17:03:09.541Z,10.47
2023-11-27T17:05:39.061Z,9.73
2023-11-27T17:08:11.863Z,10.30
2023-11-27T17:10:42.578Z,10.03
2023-11-27T17:13:13.683Z,8.97
2023-11-27T17:15:44.207Z,8.60
2023-11-27T17:18:13.447Z,8.50
2023-11-27T17:20:41.971Z,8.50
2023-11-27T17:23:11.701Z,7.80
2023-11-27T17:25:40.817Z,10.83
2023-11-27T17:28:12.720Z,12.13
2023-11-27T17:30:44.697Z,11.77
2023-11-27T17:33:15.005Z,10.40
2023-11-27T17:35:44.199Z,13.27
2023-11-27T17:38:13.057Z,10.33
2023-11-27T17:40:42.472Z,12.17
2023-11-27T17:43:13.577Z,13.57
2023-11-27T17:45:45.842Z,12.60
2023-11-27T17:48:17.235Z,15.60
2023-11-27T17:50:46.394Z,14.10
2023-11-27T17:53:18.300Z,17.93
2023-11-27T17:55:55.042Z,15.10
2023-11-27T17:58:25.920Z,17.67
2023-11-27T18:00:56.435Z,17.07
2023-11-27T18:03:24.852Z,17.33
2023-11-27T18:05:53.122Z,15.20
2023-11-27T18:08:21.419Z,15.63
2023-11-27T18:10:51.629Z,15.27
2023-11-27T18:13:20.027Z,14.57
2023-11-27T18:15:49.077Z,15.17
2023-11-27T18:18:20.046Z,16.97
2023-11-27T18:20:49.362Z,18.40
2023-11-27T18:23:22.831Z,18.50
2023-11-27T18:25:51.617Z,19.00
2023-11-27T18:28:20.046Z,20.30
2023-11-27T18:30:48.327Z,19.63
2023-11-27T18:33:18.002Z,19.33
2023-11-27T18:35:48.118Z,23.53
2023-11-27T18:38:17.215Z,22.17
2023-11-27T18:40:48.591Z,20.90
2023-11-27T18:43:17.107Z,20.63
2023-11-27T18:45:45.782Z,20.00
2023-11-27T18:48:14.087Z,17.70
2023-11-27T18:50:47.140Z,18.27
2023-11-27T18:53:15.519Z,17.50
2023-11-27T18:55:44.571Z,19.47
2023-11-27T18:58:14.912Z,18.73
2023-11-27T19:00:43.922Z,18.00
2023-11-27T19:03:15.607Z,18.03
2023-11-27T19:05:46.515Z,19.63
2023-11-27T19:08:15.160Z,16.67
2023-11-27T19:10:43.581Z,20.33
2023-11-27T19:13:12.655Z,19.97
2023-11-27T19:15:41.765Z,18.67
2023-11-27T19:18:10.470Z,20.13
2023-11-27T19:20:39.754Z,20.20
2023-11-27T19:23:09.766Z,19.83
2023-11-27T19:25:38.083Z,20.87
2023-11-27T19:28:06.604Z,22.77
2023-11-27T19:30:35.018Z,20.17
2023-11-27T19:33:04.564Z,21.37
2023-11-27T19:35:32.920Z,24.13
2023-11-27T19:38:01.465Z,20.57
2023-11-27T19:40:31.602Z,24.83
2023-11-27T19:43:00.051Z,20.70
2023-11-27T19:45:30.378Z,20.43
2023-11-27T19:47:59.529Z,19.07
2023-11-27T19:50:28.165Z,19.93
2023-11-27T19:52:56.515Z,16.37
2023-11-27T19:55:24.880Z,14.37
2023-11-27T19:57:55.343Z,13.67
2023-11-27T20:00:24.933Z,11.63
2023-11-27T20:02:55.996Z,7.97
2023-11-27T20:05:26.601Z,9.87
2023-11-27T20:07:55.091Z,10.53
2023-11-27T20:10:24.031Z,12.37
2023-11-27T20:12:52.469Z,12.53
2023-11-27T20:15:22.152Z,13.17
2023-11-27T20:17:50.627Z,10.30
2023-11-27T20:20:19.093Z,10.33
2023-11-27T20:22:48.939Z,8.07
2023-11-27T20:25:17.550Z,8.83
2023-11-27T20:27:48.812Z,9.00
2023-11-27T20:30:17.605Z,10.27
2023-11-27T20:32:47.475Z,9.37
2023-11-27T20:35:15.979Z,9.83
2023-11-27T20:37:44.384Z,11.10
2023-11-27T20:40:14.990Z,10.20
2023-11-27T20:42:43.438Z,10.13
2023-11-27T20:45:12.193Z,10.33
2023-11-27T20:47:41.239Z,10.67
2023-11-27T20:50:12.249Z,9.73
2023-11-27T20:52:41.099Z,9.87
2023-11-27T20:55:11.189Z,7.67
2023-11-27T20:57:41.970Z,10.43
2023-11-27T21:00:11.866Z,8.97
2023-11-27T21:02:43.759Z,8.37
2023-11-27T21:05:13.657Z,9.70
2023-11-27T21:07:42.502Z,9.57
2023-11-27T21:10:12.482Z,9.53
2023-11-27T21:12:42.990Z,12.00
2023-11-27T21:15:12.224Z,11.77
2023-11-27T21:17:40.918Z,12.87
2023-11-27T21:20:13.540Z,11.63
2023-11-27T21:22:46.394Z,11.37
2023-11-27T21:25:18.405Z,10.07
2023-11-27T21:27:48.917Z,9.47
2023-11-27T21:30:19.012Z,9.73
2023-11-27T21:32:47.865Z,8.67
2023-11-27T21:35:16.421Z,9.17
2023-11-27T21:37:46.469Z,8.87
2023-11-27T21:40:17.177Z,9.17
2023-11-27T21:42:45.588Z,10.13
2023-11-27T21:45:14.263Z,9.60
2023-11-27T21:47:42.593Z,10.07
2023-11-27T21:50:12.065Z,11.90
2023-11-27T21:52:40.839Z,12.90
2023-11-27T21:55:11.445Z,15.67
2023-11-27T21:57:39.817Z,14.53
2023-11-27T22:00:11.838Z,15.00
2023-11-27T22:02:41.696Z,15.23
2023-11-27T22:05:11.448Z,16.33
2023-11-27T22:07:40.277Z,16.67
2023-11-27T22:10:11.256Z,20.57
2023-11-27T22:12:41.117Z,17.93
2023-11-27T22:15:10.457Z,19.00
2023-11-27T22:17:38.742Z,18.97
2023-11-27T22:20:09.144Z,18.47
2023-11-27T22:22:39.056Z,18.87
2023-11-27T22:25:08.847Z,21.97
2023-11-27T22:27:38.856Z,23.50
2023-11-27T22:30:09.309Z,22.10
2023-11-27T22:32:37.665Z,22.47
2023-11-27T22:35:06.230Z,19.80
2023-11-27T22:37:36.060Z,21.93
2023-11-27T22:40:06.820Z,21.97
2023-11-27T22:42:35.794Z,23.33
2023-11-27T22:45:06.358Z,21.87
2023-11-27T22:47:34.843Z,22.83
2023-11-27T22:50:03.689Z,21.70
2023-11-27T22:52:33.110Z,21.40
2023-11-27T22:55:01.523Z,23.07
2023-11-27T22:57:29.842Z,24.67
2023-11-27T22:59:58.063Z,24.30
2023-11-27T23:02:28.168Z,24.00
2023-11-27T23:04:56.799Z,23.63
2023-11-27T23:07:25.690Z,22.53
2023-11-27T23:09:54.004Z,26.37
2023-11-27T23:12:22.290Z,23.63
2023-11-27T23:14:50.621Z,24.23
2023-11-27T23:17:19.028Z,25.30
2023-11-27T23:19:49.338Z,28.30
2023-11-27T23:22:17.673Z,26.73
2023-11-27T23:24:46.129Z,24.73
2023-11-27T23:27:16.373Z,26.53
2023-11-27T23:29:44.676Z,26.33
2023-11-27T23:32:13.013Z,23.47
2023-11-27T23:34:41.658Z,23.37
2023-11-27T23:37:11.405Z,21.77
2023-11-27T23:39:39.691Z,21.47
2023-11-27T23:42:08.045Z,23.67
2023-11-27T23:44:36.622Z,21.20
2023-11-27T23:47:05.183Z,22.73
2023-11-27T23:49:37.042Z,23.03
2023-11-27T23:52:05.897Z,20.17
2023-11-27T23:54:35.851Z,20.53
2023-11-27T23:57:04.634Z,22.37
2023-11-27T23:59:32.900Z,23.63
